Atwater, Ohio
Current Conditions -  °F | °C
As of 6:18 PM on Saturday 25 Oct 2014 (Local Time) from KPOV Reporting Station
Clear Clear  
Wind Chill: 19°   Ceiling: Unl
Heat Index: 19°   Visibility: 10mi
Dew Point:   Wind: 16mph
Humidity: 41%   Direction: 270°W
Pressure: 29.75"   Gusts: 29mph
Location:  41.02°N, 81.16°W
Report Text: KPOV 252218Z AUTO 27014G25KT 10SM CLR 19/05 A2975 RMK AO2 T01900054
Loading
Personal Weather Stations






























Interactive Weather Map
Tropical Storm Tracking
New forecast layout! Learn more

10-Day Weather Forecast

Advertisements
Track Severe Weather on mobile